sensor_id;sensor_type;location;lat;lon;timestamp;temperature;humidity
81311;DHT22;70779;52.506;5.492;2023-09-12T04:45:50;21.40;71.30
81311;DHT22;70779;52.506;5.492;2023-09-12T04:48:16;21.40;71.30
81311;DHT22;70779;52.506;5.492;2023-09-12T04:50:43;21.40;71.30
81311;DHT22;70779;52.506;5.492;2023-09-12T04:53:10;21.40;71.30
81311;DHT22;70779;52.506;5.492;2023-09-12T04:55:37;21.40;71.30
81311;DHT22;70779;52.506;5.492;2023-09-12T04:58:04;21.40;71.30
81311;DHT22;70779;52.506;5.492;2023-09-12T05:00:31;21.50;71.30
81311;DHT22;70779;52.506;5.492;2023-09-12T05:02:58;21.50;71.20
81311;DHT22;70779;52.506;5.492;2023-09-12T05:05:24;21.50;71.20
81311;DHT22;70779;52.506;5.492;2023-09-12T05:07:50;21.50;71.30
81311;DHT22;70779;52.506;5.492;2023-09-12T05:10:19;21.50;71.30
81311;DHT22;70779;52.506;5.492;2023-09-12T05:12:45;21.50;71.30
81311;DHT22;70779;52.506;5.492;2023-09-12T05:15:12;21.50;71.30
81311;DHT22;70779;52.506;5.492;2023-09-12T05:17:38;21.50;71.30
81311;DHT22;70779;52.506;5.492;2023-09-12T05:20:04;21.50;71.30
81311;DHT22;70779;52.506;5.492;2023-09-12T05:22:31;21.50;71.30
81311;DHT22;70779;52.506;5.492;2023-09-12T05:24:57;21.50;71.40
81311;DHT22;70779;52.506;5.492;2023-09-12T05:27:23;21.40;71.40
81311;DHT22;70779;52.506;5.492;2023-09-12T05:29:49;21.40;71.30
81311;DHT22;70779;52.506;5.492;2023-09-12T05:32:15;21.50;71.30
81311;DHT22;70779;52.506;5.492;2023-09-12T05:34:42;21.50;71.30
81311;DHT22;70779;52.506;5.492;2023-09-12T05:37:08;21.50;71.20
81311;DHT22;70779;52.506;5.492;2023-09-12T05:39:34;21.50;71.20
81311;DHT22;70779;52.506;5.492;2023-09-12T05:42:00;21.50;71.20
81311;DHT22;70779;52.506;5.492;2023-09-12T05:44:27;21.50;71.20
81311;DHT22;70779;52.506;5.492;2023-09-12T05:46:53;21.50;71.20
81311;DHT22;70779;52.506;5.492;2023-09-12T05:49:19;21.50;71.20
81311;DHT22;70779;52.506;5.492;2023-09-12T05:51:45;21.50;71.20
81311;DHT22;70779;52.506;5.492;2023-09-12T05:54:12;21.50;71.20
81311;DHT22;70779;52.506;5.492;2023-09-12T05:56:39;21.50;71.20
81311;DHT22;70779;52.506;5.492;2023-09-12T05:59:06;21.60;71.20
81311;DHT22;70779;52.506;5.492;2023-09-12T06:01:32;21.60;71.20
81311;DHT22;70779;52.506;5.492;2023-09-12T06:03:58;21.70;71.20
81311;DHT22;70779;52.506;5.492;2023-09-12T06:06:24;21.70;71.20
81311;DHT22;70779;52.506;5.492;2023-09-12T06:08:50;21.70;71.10
81311;DHT22;70779;52.506;5.492;2023-09-12T06:11:18;21.70;71.10
81311;DHT22;70779;52.506;5.492;2023-09-12T06:13:44;21.80;71.00
81311;DHT22;70779;52.506;5.492;2023-09-12T06:16:10;21.90;70.80
81311;DHT22;70779;52.506;5.492;2023-09-12T06:18:36;21.90;70.80
81311;DHT22;70779;52.506;5.492;2023-09-12T06:21:02;21.90;70.70
81311;DHT22;70779;52.506;5.492;2023-09-12T06:23:30;22.00;70.70
81311;DHT22;70779;52.506;5.492;2023-09-12T06:25:56;22.10;70.60
81311;DHT22;70779;52.506;5.492;2023-09-12T06:28:30;22.10;70.40
81311;DHT22;70779;52.506;5.492;2023-09-12T06:30:57;22.20;70.20
81311;DHT22;70779;52.506;5.492;2023-09-12T06:33:26;22.20;70.10
81311;DHT22;70779;52.506;5.492;2023-09-12T06:35:52;22.20;70.00
81311;DHT22;70779;52.506;5.492;2023-09-12T06:38:20;22.20;70.00
81311;DHT22;70779;52.506;5.492;2023-09-12T06:40:46;22.20;70.10
81311;DHT22;70779;52.506;5.492;2023-09-12T06:43:13;22.20;70.10
81311;DHT22;70779;52.506;5.492;2023-09-12T06:45:43;22.20;70.20
81311;DHT22;70779;52.506;5.492;2023-09-12T06:48:09;22.20;70.20
81311;DHT22;70779;52.506;5.492;2023-09-12T06:50:35;22.30;70.20
81311;DHT22;70779;52.506;5.492;2023-09-12T06:53:04;22.30;70.10
81311;DHT22;70779;52.506;5.492;2023-09-12T06:55:32;22.40;70.00
81311;DHT22;70779;52.506;5.492;2023-09-12T06:57:58;22.50;70.00
81311;DHT22;70779;52.506;5.492;2023-09-12T07:00:25;22.50;69.90
81311;DHT22;70779;52.506;5.492;2023-09-12T07:05:18;22.80;69.80
81311;DHT22;70779;52.506;5.492;2023-09-12T07:07:45;22.80;69.60
81311;DHT22;70779;52.506;5.492;2023-09-12T07:10:11;22.80;69.40
81311;DHT22;70779;52.506;5.492;2023-09-12T07:12:37;22.90;69.40
81311;DHT22;70779;52.506;5.492;2023-09-12T07:15:04;23.00;69.20
81311;DHT22;70779;52.506;5.492;2023-09-12T07:17:30;23.10;69.00
81311;DHT22;70779;52.506;5.492;2023-09-12T07:19:56;23.10;69.00
81311;DHT22;70779;52.506;5.492;2023-09-12T07:22:23;23.20;68.90
81311;DHT22;70779;52.506;5.492;2023-09-12T07:24:49;23.30;68.80
81311;DHT22;70779;52.506;5.492;2023-09-12T07:27:15;23.40;68.90
81311;DHT22;70779;52.506;5.492;2023-09-12T07:29:41;23.60;69.00
81311;DHT22;70779;52.506;5.492;2023-09-12T07:32:07;24.20;68.30
81311;DHT22;70779;52.506;5.492;2023-09-12T07:34:33;24.70;67.20
81311;DHT22;70779;52.506;5.492;2023-09-12T07:36:59;25.40;66.30
81311;DHT22;70779;52.506;5.492;2023-09-12T07:39:25;26.10;64.50
81311;DHT22;70779;52.506;5.492;2023-09-12T07:41:51;26.70;63.20
81311;DHT22;70779;52.506;5.492;2023-09-12T07:44:17;27.10;62.60
81311;DHT22;70779;52.506;5.492;2023-09-12T07:46:43;27.40;61.70
81311;DHT22;70779;52.506;5.492;2023-09-12T07:49:10;27.50;61.10
81311;DHT22;70779;52.506;5.492;2023-09-12T07:51:36;27.40;61.10
81311;DHT22;70779;52.506;5.492;2023-09-12T07:54:02;27.30;61.60
81311;DHT22;70779;52.506;5.492;2023-09-12T07:56:28;27.50;61.40
81311;DHT22;70779;52.506;5.492;2023-09-12T07:58:57;27.60;61.20
81311;DHT22;70779;52.506;5.492;2023-09-12T08:01:23;27.90;60.40
81311;DHT22;70779;52.506;5.492;2023-09-12T08:03:49;28.10;60.10
81311;DHT22;70779;52.506;5.492;2023-09-12T08:06:16;28.50;60.00
81311;DHT22;70779;52.506;5.492;2023-09-12T08:08:42;29.00;58.50
81311;DHT22;70779;52.506;5.492;2023-09-12T08:11:08;29.50;57.90
81311;DHT22;70779;52.506;5.492;2023-09-12T08:13:34;30.20;56.40
81311;DHT22;70779;52.506;5.492;2023-09-12T08:16:00;30.50;55.50
81311;DHT22;70779;52.506;5.492;2023-09-12T08:18:29;30.50;55.10
81311;DHT22;70779;52.506;5.492;2023-09-12T08:20:55;30.30;55.40
81311;DHT22;70779;52.506;5.492;2023-09-12T08:23:21;30.00;55.60
81311;DHT22;70779;52.506;5.492;2023-09-12T08:25:48;29.70;56.00
81311;DHT22;70779;52.506;5.492;2023-09-12T08:28:14;29.60;56.60
81311;DHT22;70779;52.506;5.492;2023-09-12T08:30:40;29.70;56.60
81311;DHT22;70779;52.506;5.492;2023-09-12T08:33:06;29.60;56.30
81311;DHT22;70779;52.506;5.492;2023-09-12T08:35:33;29.50;56.30
81311;DHT22;70779;52.506;5.492;2023-09-12T08:37:59;29.30;56.50
81311;DHT22;70779;52.506;5.492;2023-09-12T08:40:25;29.00;57.10
81311;DHT22;70779;52.506;5.492;2023-09-12T08:42:52;28.80;57.40
81311;DHT22;70779;52.506;5.492;2023-09-12T08:45:19;28.50;57.90
81311;DHT22;70779;52.506;5.492;2023-09-12T08:47:49;28.30;58.40
81311;DHT22;70779;52.506;5.492;2023-09-12T08:50:16;28.20;58.90
81311;DHT22;70779;52.506;5.492;2023-09-12T08:52:45;28.30;58.70
81311;DHT22;70779;52.506;5.492;2023-09-12T08:55:11;28.50;58.30
81311;DHT22;70779;52.506;5.492;2023-09-12T08:57:41;28.50;58.00
81311;DHT22;70779;52.506;5.492;2023-09-12T09:00:09;28.50;57.80
81311;DHT22;70779;52.506;5.492;2023-09-12T09:02:36;28.30;58.00
81311;DHT22;70779;52.506;5.492;2023-09-12T09:05:04;28.10;58.20
81311;DHT22;70779;52.506;5.492;2023-09-12T09:07:38;28.10;58.30
81311;DHT22;70779;52.506;5.492;2023-09-12T09:10:06;28.10;58.70
81311;DHT22;70779;52.506;5.492;2023-09-12T09:12:34;28.60;58.10
81311;DHT22;70779;52.506;5.492;2023-09-12T09:15:23;29.10;57.00
81311;DHT22;70779;52.506;5.492;2023-09-12T09:17:50;29.10;56.50
81311;DHT22;70779;52.506;5.492;2023-09-12T09:20:28;28.90;56.60
81311;DHT22;70779;52.506;5.492;2023-09-12T09:22:58;28.70;57.30
81311;DHT22;70779;52.506;5.492;2023-09-12T09:25:25;28.90;57.30
81311;DHT22;70779;52.506;5.492;2023-09-12T09:27:51;29.50;57.50
81311;DHT22;70779;52.506;5.492;2023-09-12T09:30:17;30.90;55.70
81311;DHT22;70779;52.506;5.492;2023-09-12T09:32:44;32.50;52.90
81311;DHT22;70779;52.506;5.492;2023-09-12T09:35:11;33.50;51.00
81311;DHT22;70779;52.506;5.492;2023-09-12T09:37:38;34.40;49.80
81311;DHT22;70779;52.506;5.492;2023-09-12T09:40:06;35.20;48.60
81311;DHT22;70779;52.506;5.492;2023-09-12T09:42:33;36.00;47.00
81311;DHT22;70779;52.506;5.492;2023-09-12T09:44:59;36.10;46.70
81311;DHT22;70779;52.506;5.492;2023-09-12T09:47:26;36.00;46.70
81311;DHT22;70779;52.506;5.492;2023-09-12T09:49:52;36.20;46.60
81311;DHT22;70779;52.506;5.492;2023-09-12T09:52:25;36.40;45.90
81311;DHT22;70779;52.506;5.492;2023-09-12T09:54:52;36.30;45.70
81311;DHT22;70779;52.506;5.492;2023-09-12T09:57:18;36.10;45.80
81311;DHT22;70779;52.506;5.492;2023-09-12T09:59:49;35.70;46.00
81311;DHT22;70779;52.506;5.492;2023-09-12T10:02:18;35.00;46.70
81311;DHT22;70779;52.506;5.492;2023-09-12T10:04:48;34.20;47.60
81311;DHT22;70779;52.506;5.492;2023-09-12T10:07:16;33.60;48.30
81311;DHT22;70779;52.506;5.492;2023-09-12T10:09:43;33.00;48.80
81311;DHT22;70779;52.506;5.492;2023-09-12T10:12:09;32.40;49.70
81311;DHT22;70779;52.506;5.492;2023-09-12T10:14:38;31.80;50.60
81311;DHT22;70779;52.506;5.492;2023-09-12T10:17:05;31.30;51.50
81311;DHT22;70779;52.506;5.492;2023-09-12T10:19:54;30.90;52.50
81311;DHT22;70779;52.506;5.492;2023-09-12T10:22:25;31.00;52.60
81311;DHT22;70779;52.506;5.492;2023-09-12T10:24:52;31.10;52.50
81311;DHT22;70779;52.506;5.492;2023-09-12T10:27:19;31.30;52.80
81311;DHT22;70779;52.506;5.492;2023-09-12T10:29:46;31.70;52.20
81311;DHT22;70779;52.506;5.492;2023-09-12T10:32:14;32.20;51.40
81311;DHT22;70779;52.506;5.492;2023-09-12T10:34:44;32.70;50.80
81311;DHT22;70779;52.506;5.492;2023-09-12T10:37:15;33.10;50.30
81311;DHT22;70779;52.506;5.492;2023-09-12T10:39:43;33.40;49.80
81311;DHT22;70779;52.506;5.492;2023-09-12T10:42:09;33.50;49.50
81311;DHT22;70779;52.506;5.492;2023-09-12T10:44:36;33.50;49.20
81311;DHT22;70779;52.506;5.492;2023-09-12T10:47:04;33.40;49.00
81311;DHT22;70779;52.506;5.492;2023-09-12T10:49:30;33.20;49.70
81311;DHT22;70779;52.506;5.492;2023-09-12T10:51:57;33.00;49.30
81311;DHT22;70779;52.506;5.492;2023-09-12T10:54:25;32.60;49.70
81311;DHT22;70779;52.506;5.492;2023-09-12T10:57:05;32.20;50.40
81311;DHT22;70779;52.506;5.492;2023-09-12T10:59:31;32.00;50.90
81311;DHT22;70779;52.506;5.492;2023-09-12T11:02:32;31.70;51.00
81311;DHT22;70779;52.506;5.492;2023-09-12T11:05:03;31.50;51.40
81311;DHT22;70779;52.506;5.492;2023-09-12T11:12:47;31.30;52.00
81311;DHT22;70779;52.506;5.492;2023-09-12T11:15:14;31.20;52.10
81311;DHT22;70779;52.506;5.492;2023-09-12T11:17:48;31.20;51.90
81311;DHT22;70779;52.506;5.492;2023-09-12T11:20:14;31.00;51.90
81311;DHT22;70779;52.506;5.492;2023-09-12T11:22:45;30.90;52.20
81311;DHT22;70779;52.506;5.492;2023-09-12T11:28:01;30.70;52.40
81311;DHT22;70779;52.506;5.492;2023-09-12T11:30:29;30.60;52.60
81311;DHT22;70779;52.506;5.492;2023-09-12T11:32:57;30.50;52.40
81311;DHT22;70779;52.506;5.492;2023-09-12T11:35:25;30.50;52.50
81311;DHT22;70779;52.506;5.492;2023-09-12T11:37:54;30.50;52.70
81311;DHT22;70779;52.506;5.492;2023-09-12T11:40:42;30.30;53.20
81311;DHT22;70779;52.506;5.492;2023-09-12T11:43:20;30.30;53.60
81311;DHT22;70779;52.506;5.492;2023-09-12T11:45:47;30.30;53.50
81311;DHT22;70779;52.506;5.492;2023-09-12T11:48:13;30.40;53.30
81311;DHT22;70779;52.506;5.492;2023-09-12T11:50:39;30.50;53.00
81311;DHT22;70779;52.506;5.492;2023-09-12T11:53:09;30.50;52.80
81311;DHT22;70779;52.506;5.492;2023-09-12T11:55:45;30.40;52.80
81311;DHT22;70779;52.506;5.492;2023-09-12T11:58:14;30.30;53.10
81311;DHT22;70779;52.506;5.492;2023-09-12T12:00:54;30.30;52.80
81311;DHT22;70779;52.506;5.492;2023-09-12T12:03:22;30.30;53.20
81311;DHT22;70779;52.506;5.492;2023-09-12T12:05:49;30.30;52.70
81311;DHT22;70779;52.506;5.492;2023-09-12T12:08:17;30.40;52.60
81311;DHT22;70779;52.506;5.492;2023-09-12T12:10:44;30.50;52.60
81311;DHT22;70779;52.506;5.492;2023-09-12T12:13:19;30.50;52.50
81311;DHT22;70779;52.506;5.492;2023-09-12T12:15:45;30.40;52.20
81311;DHT22;70779;52.506;5.492;2023-09-12T12:18:12;30.30;52.20
81311;DHT22;70779;52.506;5.492;2023-09-12T12:20:38;30.20;52.20
81311;DHT22;70779;52.506;5.492;2023-09-12T12:23:04;30.10;52.50
81311;DHT22;70779;52.506;5.492;2023-09-12T12:25:34;30.00;52.50
81311;DHT22;70779;52.506;5.492;2023-09-12T12:28:01;30.00;52.50
81311;DHT22;70779;52.506;5.492;2023-09-12T12:30:31;30.00;52.80
81311;DHT22;70779;52.506;5.492;2023-09-12T12:33:01;30.00;52.50
81311;DHT22;70779;52.506;5.492;2023-09-12T12:35:28;30.00;52.30
81311;DHT22;70779;52.506;5.492;2023-09-12T12:37:55;29.90;52.10
81311;DHT22;70779;52.506;5.492;2023-09-12T12:40:22;29.90;52.00
81311;DHT22;70779;52.506;5.492;2023-09-12T12:42:48;29.90;51.80
81311;DHT22;70779;52.506;5.492;2023-09-12T12:45:17;29.80;51.60
81311;DHT22;70779;52.506;5.492;2023-09-12T12:47:43;29.70;52.10
81311;DHT22;70779;52.506;5.492;2023-09-12T12:50:15;29.70;52.30
81311;DHT22;70779;52.506;5.492;2023-09-12T12:52:47;29.50;52.50
81311;DHT22;70779;52.506;5.492;2023-09-12T12:55:14;29.40;52.90
81311;DHT22;70779;52.506;5.492;2023-09-12T12:57:43;29.30;53.50
81311;DHT22;70779;52.506;5.492;2023-09-12T13:00:11;29.30;53.70
81311;DHT22;70779;52.506;5.492;2023-09-12T13:02:38;29.20;54.10
81311;DHT22;70779;52.506;5.492;2023-09-12T13:05:06;29.10;54.50
81311;DHT22;70779;52.506;5.492;2023-09-12T13:07:34;29.00;54.80
81311;DHT22;70779;52.506;5.492;2023-09-12T13:10:02;28.90;55.10
81311;DHT22;70779;52.506;5.492;2023-09-12T13:12:30;28.90;55.50
81311;DHT22;70779;52.506;5.492;2023-09-12T13:14:56;28.90;55.40
81311;DHT22;70779;52.506;5.492;2023-09-12T13:17:23;28.80;55.70
81311;DHT22;70779;52.506;5.492;2023-09-12T13:19:49;28.80;55.90
81311;DHT22;70779;52.506;5.492;2023-09-12T13:22:15;28.70;55.80
81311;DHT22;70779;52.506;5.492;2023-09-12T13:24:41;28.70;56.00
81311;DHT22;70779;52.506;5.492;2023-09-12T13:27:07;28.70;55.90
81311;DHT22;70779;52.506;5.492;2023-09-12T13:29:33;28.80;56.00
81311;DHT22;70779;52.506;5.492;2023-09-12T13:32:00;28.70;56.00
81311;DHT22;70779;52.506;5.492;2023-09-12T13:34:26;28.80;55.90
81311;DHT22;70779;52.506;5.492;2023-09-12T13:36:52;28.70;55.80
81311;DHT22;70779;52.506;5.492;2023-09-12T13:39:18;28.70;56.00
81311;DHT22;70779;52.506;5.492;2023-09-12T13:41:44;28.70;56.20
81311;DHT22;70779;52.506;5.492;2023-09-12T13:44:10;28.70;56.20
81311;DHT22;70779;52.506;5.492;2023-09-12T13:46:37;28.70;56.30
81311;DHT22;70779;52.506;5.492;2023-09-12T13:49:03;28.60;56.50
81311;DHT22;70779;52.506;5.492;2023-09-12T13:51:29;28.60;56.60
81311;DHT22;70779;52.506;5.492;2023-09-12T13:53:55;28.60;56.40
81311;DHT22;70779;52.506;5.492;2023-09-12T13:56:22;28.50;56.40
81311;DHT22;70779;52.506;5.492;2023-09-12T13:58:48;28.60;56.40
81311;DHT22;70779;52.506;5.492;2023-09-12T14:01:15;28.60;56.00
81311;DHT22;70779;52.506;5.492;2023-09-12T14:03:41;28.60;56.10
81311;DHT22;70779;52.506;5.492;2023-09-12T14:06:07;28.60;56.50
81311;DHT22;70779;52.506;5.492;2023-09-12T14:08:33;28.60;56.60
81311;DHT22;70779;52.506;5.492;2023-09-12T14:11:00;28.60;57.00
81311;DHT22;70779;52.506;5.492;2023-09-12T14:13:26;28.60;57.40
81311;DHT22;70779;52.506;5.492;2023-09-12T14:15:52;28.60;57.80
81311;DHT22;70779;52.506;5.492;2023-09-12T14:18:19;28.70;57.70
81311;DHT22;70779;52.506;5.492;2023-09-12T14:20:46;28.70;56.70
81311;DHT22;70779;52.506;5.492;2023-09-12T14:23:12;28.50;56.60
81311;DHT22;70779;52.506;5.492;2023-09-12T14:25:38;28.40;57.00
81311;DHT22;70779;52.506;5.492;2023-09-12T14:28:05;28.30;57.30
81311;DHT22;70779;52.506;5.492;2023-09-12T14:30:31;28.20;57.50
81311;DHT22;70779;52.506;5.492;2023-09-12T14:33:02;28.10;57.80
81311;DHT22;70779;52.506;5.492;2023-09-12T14:35:29;28.00;57.30
81311;DHT22;70779;52.506;5.492;2023-09-12T14:37:55;27.80;57.10
81311;DHT22;70779;52.506;5.492;2023-09-12T14:40:21;27.70;57.30
81311;DHT22;70779;52.506;5.492;2023-09-12T14:42:48;27.60;57.50
81311;DHT22;70779;52.506;5.492;2023-09-12T14:45:14;27.50;57.70
81311;DHT22;70779;52.506;5.492;2023-09-12T14:47:40;27.60;57.70
81311;DHT22;70779;52.506;5.492;2023-09-12T14:50:07;27.70;57.80
81311;DHT22;70779;52.506;5.492;2023-09-12T14:52:34;27.80;57.20
81311;DHT22;70779;52.506;5.492;2023-09-12T14:55:00;27.90;57.30
81311;DHT22;70779;52.506;5.492;2023-09-12T14:57:28;28.00;57.10
81311;DHT22;70779;52.506;5.492;2023-09-12T14:59:54;28.00;56.90
81311;DHT22;70779;52.506;5.492;2023-09-12T15:02:21;27.90;56.80
81311;DHT22;70779;52.506;5.492;2023-09-12T15:04:47;27.90;56.50
81311;DHT22;70779;52.506;5.492;2023-09-12T15:07:13;27.80;56.50
81311;DHT22;70779;52.506;5.492;2023-09-12T15:09:39;27.80;56.40
81311;DHT22;70779;52.506;5.492;2023-09-12T15:12:06;27.70;56.40
81311;DHT22;70779;52.506;5.492;2023-09-12T15:14:33;27.60;56.70
81311;DHT22;70779;52.506;5.492;2023-09-12T15:16:59;27.50;57.20
81311;DHT22;70779;52.506;5.492;2023-09-12T15:19:26;27.50;57.50
81311;DHT22;70779;52.506;5.492;2023-09-12T15:21:52;27.50;57.70
81311;DHT22;70779;52.506;5.492;2023-09-12T15:24:18;27.40;58.00
81311;DHT22;70779;52.506;5.492;2023-09-12T15:26:44;27.40;58.20
81311;DHT22;70779;52.506;5.492;2023-09-12T15:29:10;27.30;58.40
81311;DHT22;70779;52.506;5.492;2023-09-12T15:31:36;27.20;58.80
81311;DHT22;70779;52.506;5.492;2023-09-12T15:34:02;27.10;59.00
81311;DHT22;70779;52.506;5.492;2023-09-12T15:36:35;27.10;59.20
81311;DHT22;70779;52.506;5.492;2023-09-12T15:39:02;27.00;59.40
81311;DHT22;70779;52.506;5.492;2023-09-12T15:41:28;26.90;59.70
81311;DHT22;70779;52.506;5.492;2023-09-12T15:43:54;26.90;60.00
81311;DHT22;70779;52.506;5.492;2023-09-12T15:46:20;26.80;60.30
81311;DHT22;70779;52.506;5.492;2023-09-12T15:48:49;26.80;60.70
81311;DHT22;70779;52.506;5.492;2023-09-12T15:51:15;26.70;61.20
81311;DHT22;70779;52.506;5.492;2023-09-12T15:53:41;26.50;61.50
81311;DHT22;70779;52.506;5.492;2023-09-12T15:56:07;26.40;61.50
81311;DHT22;70779;52.506;5.492;2023-09-12T15:58:33;26.20;61.50
81311;DHT22;70779;52.506;5.492;2023-09-12T16:00:59;26.10;61.60
81311;DHT22;70779;52.506;5.492;2023-09-12T16:03:28;26.00;61.30
81311;DHT22;70779;52.506;5.492;2023-09-12T16:05:54;26.00;61.20
81311;DHT22;70779;52.506;5.492;2023-09-12T16:08:20;26.00;61.40
81311;DHT22;70779;52.506;5.492;2023-09-12T16:10:47;25.90;61.60
81311;DHT22;70779;52.506;5.492;2023-09-12T16:13:13;25.90;61.70
81311;DHT22;70779;52.506;5.492;2023-09-12T16:15:39;25.90;62.00
81311;DHT22;70779;52.506;5.492;2023-09-12T16:18:05;25.90;62.10
81311;DHT22;70779;52.506;5.492;2023-09-12T16:20:31;25.80;61.90
81311;DHT22;70779;52.506;5.492;2023-09-12T16:22:57;25.80;61.90
81311;DHT22;70779;52.506;5.492;2023-09-12T16:25:24;25.70;61.80
81311;DHT22;70779;52.506;5.492;2023-09-12T16:27:50;25.60;62.00
81311;DHT22;70779;52.506;5.492;2023-09-12T16:30:17;25.60;62.30
81311;DHT22;70779;52.506;5.492;2023-09-12T16:32:43;25.50;62.50
81311;DHT22;70779;52.506;5.492;2023-09-12T16:35:09;25.50;62.90
81311;DHT22;70779;52.506;5.492;2023-09-12T16:37:35;25.50;63.10
81311;DHT22;70779;52.506;5.492;2023-09-12T16:40:01;25.50;63.20
81311;DHT22;70779;52.506;5.492;2023-09-12T16:42:29;25.50;63.30
81311;DHT22;70779;52.506;5.492;2023-09-12T16:44:57;25.50;63.30
81311;DHT22;70779;52.506;5.492;2023-09-12T16:47:28;25.50;63.40
81311;DHT22;70779;52.506;5.492;2023-09-12T16:49:56;25.40;63.60
81311;DHT22;70779;52.506;5.492;2023-09-12T16:52:22;25.30;63.70
81311;DHT22;70779;52.506;5.492;2023-09-12T16:54:48;25.30;63.90
81311;DHT22;70779;52.506;5.492;2023-09-12T16:57:15;25.20;64.10
81311;DHT22;70779;52.506;5.492;2023-09-12T16:59:41;25.00;64.30
81311;DHT22;70779;52.506;5.492;2023-09-12T17:02:09;25.00;64.50
81311;DHT22;70779;52.506;5.492;2023-09-12T17:04:36;25.00;64.70
81311;DHT22;70779;52.506;5.492;2023-09-12T17:07:02;25.00;64.70
81311;DHT22;70779;52.506;5.492;2023-09-12T17:09:28;24.90;64.90
81311;DHT22;70779;52.506;5.492;2023-09-12T17:11:54;24.80;65.00
81311;DHT22;70779;52.506;5.492;2023-09-12T17:14:20;24.70;65.10
81311;DHT22;70779;52.506;5.492;2023-09-12T17:16:46;24.70;65.30
81311;DHT22;70779;52.506;5.492;2023-09-12T17:19:12;24.70;65.30
81311;DHT22;70779;52.506;5.492;2023-09-12T17:21:39;24.60;65.40
81311;DHT22;70779;52.506;5.492;2023-09-12T17:24:05;24.60;65.50
81311;DHT22;70779;52.506;5.492;2023-09-12T17:26:32;24.60;65.50
81311;DHT22;70779;52.506;5.492;2023-09-12T17:28:58;24.50;65.60
81311;DHT22;70779;52.506;5.492;2023-09-12T17:31:25;24.40;65.90
81311;DHT22;70779;52.506;5.492;2023-09-12T17:33:51;24.40;65.80
81311;DHT22;70779;52.506;5.492;2023-09-12T17:36:17;24.40;65.70
81311;DHT22;70779;52.506;5.492;2023-09-12T17:38:43;24.40;65.60
81311;DHT22;70779;52.506;5.492;2023-09-12T17:41:09;24.30;65.50
81311;DHT22;70779;52.506;5.492;2023-09-12T17:43:36;24.30;65.60
81311;DHT22;70779;52.506;5.492;2023-09-12T17:46:02;24.30;65.70
81311;DHT22;70779;52.506;5.492;2023-09-12T17:48:28;24.30;66.00
81311;DHT22;70779;52.506;5.492;2023-09-12T17:50:55;24.20;66.10
81311;DHT22;70779;52.506;5.492;2023-09-12T17:53:21;24.20;66.20
81311;DHT22;70779;52.506;5.492;2023-09-12T17:55:51;24.10;66.50
81311;DHT22;70779;52.506;5.492;2023-09-12T17:58:21;24.00;66.90
81311;DHT22;70779;52.506;5.492;2023-09-12T18:00:57;23.90;67.00
81311;DHT22;70779;52.506;5.492;2023-09-12T18:03:23;23.80;67.20
81311;DHT22;70779;52.506;5.492;2023-09-12T18:05:49;23.70;67.60
81311;DHT22;70779;52.506;5.492;2023-09-12T18:08:15;23.60;68.00
81311;DHT22;70779;52.506;5.492;2023-09-12T18:10:41;23.60;68.20
81311;DHT22;70779;52.506;5.492;2023-09-12T18:13:08;23.60;68.20
81311;DHT22;70779;52.506;5.492;2023-09-12T18:15:34;23.60;68.40
81311;DHT22;70779;52.506;5.492;2023-09-12T18:18:00;23.50;68.40
81311;DHT22;70779;52.506;5.492;2023-09-12T18:20:26;23.50;68.60
81311;DHT22;70779;52.506;5.492;2023-09-12T18:22:52;23.50;68.60
81311;DHT22;70779;52.506;5.492;2023-09-12T18:25:18;23.50;68.70
81311;DHT22;70779;52.506;5.492;2023-09-12T18:27:44;23.50;68.70
81311;DHT22;70779;52.506;5.492;2023-09-12T18:30:11;23.50;68.70
81311;DHT22;70779;52.506;5.492;2023-09-12T18:32:40;23.50;68.80
81311;DHT22;70779;52.506;5.492;2023-09-12T18:35:07;23.50;68.80
81311;DHT22;70779;52.506;5.492;2023-09-12T18:37:34;23.50;68.80
81311;DHT22;70779;52.506;5.492;2023-09-12T18:40:00;23.60;68.70
81311;DHT22;70779;52.506;5.492;2023-09-12T18:42:26;23.60;68.70
81311;DHT22;70779;52.506;5.492;2023-09-12T18:44:53;23.60;68.70
81311;DHT22;70779;52.506;5.492;2023-09-12T18:47:19;23.60;68.80
81311;DHT22;70779;52.506;5.492;2023-09-12T18:49:45;23.50;68.90
81311;DHT22;70779;52.506;5.492;2023-09-12T18:52:11;23.50;68.80
81311;DHT22;70779;52.506;5.492;2023-09-12T18:54:37;23.60;68.70
81311;DHT22;70779;52.506;5.492;2023-09-12T18:57:10;23.50;68.70
81311;DHT22;70779;52.506;5.492;2023-09-12T18:59:38;23.60;68.70
81311;DHT22;70779;52.506;5.492;2023-09-12T19:02:04;23.60;68.60
81311;DHT22;70779;52.506;5.492;2023-09-12T19:04:30;23.50;68.70
81311;DHT22;70779;52.506;5.492;2023-09-12T19:06:57;23.60;68.60
81311;DHT22;70779;52.506;5.492;2023-09-12T19:09:23;23.60;68.50
81311;DHT22;70779;52.506;5.492;2023-09-12T19:11:49;23.50;68.40
81311;DHT22;70779;52.506;5.492;2023-09-12T19:14:16;23.50;68.40
81311;DHT22;70779;52.506;5.492;2023-09-12T19:16:43;23.50;68.50
81311;DHT22;70779;52.506;5.492;2023-09-12T19:19:09;23.50;68.60
81311;DHT22;70779;52.506;5.492;2023-09-12T19:21:35;23.50;68.70
81311;DHT22;70779;52.506;5.492;2023-09-12T19:24:02;23.50;68.70
81311;DHT22;70779;52.506;5.492;2023-09-12T19:26:30;23.50;68.60
81311;DHT22;70779;52.506;5.492;2023-09-12T19:29:01;23.60;68.50
81311;DHT22;70779;52.506;5.492;2023-09-12T19:31:27;23.60;68.50
81311;DHT22;70779;52.506;5.492;2023-09-12T19:33:53;23.60;68.50
81311;DHT22;70779;52.506;5.492;2023-09-12T19:36:19;23.60;68.40
81311;DHT22;70779;52.506;5.492;2023-09-12T19:38:46;23.60;68.30
81311;DHT22;70779;52.506;5.492;2023-09-12T19:41:12;23.60;68.30
81311;DHT22;70779;52.506;5.492;2023-09-12T19:43:38;23.60;68.20
81311;DHT22;70779;52.506;5.492;2023-09-12T19:46:06;23.60;68.00
81311;DHT22;70779;52.506;5.492;2023-09-12T19:48:33;23.60;68.00
81311;DHT22;70779;52.506;5.492;2023-09-12T19:50:59;23.60;68.00
81311;DHT22;70779;52.506;5.492;2023-09-12T19:53:28;23.60;68.10
81311;DHT22;70779;52.506;5.492;2023-09-12T19:55:55;23.60;68.00
81311;DHT22;70779;52.506;5.492;2023-09-12T19:58:22;23.50;68.00
